Time;durP1;ratioP1;P1;durP2;ratioP2;P2;SDS_P1;SDS_P2;PMS_P1;PMS_P2;Temp;Humidity;BMP_temperature;BMP_pressure;BME280_temperature;BME280_humidity;BME280_pressure;Samples;Min_cycle;Max_cycle;Signal;HPM_P1;HPM_P2
2022/04/21 00:00:32;;;;;;;1.65;1.42;;;;;;;9.24;50.00;99587.25;5000453;28;20044;-58
2022/04/21 00:02:57;;;;;;;1.50;1.33;;;;;;;8.99;51.52;99595.41;5008490;28;20556;-58
2022/04/21 00:05:23;;;;;;;2.00;1.70;;;;;;;9.06;50.34;99597.00;5013923;28;20472;-58
2022/04/21 00:07:49;;;;;;;3.45;1.75;;;;;;;9.02;51.75;99590.22;5013614;28;20114;-58
2022/04/21 00:10:16;;;;;;;2.05;1.67;;;;;;;9.11;50.61;99587.47;4978812;28;20027;-58
2022/04/21 00:12:42;;;;;;;3.22;1.58;;;;;;;9.19;50.33;99589.91;4997932;28;20494;-58
2022/04/21 00:15:08;;;;;;;4.15;1.45;;;;;;;9.24;50.14;99597.59;5003697;28;20053;-59
2022/04/21 00:17:34;;;;;;;2.95;1.65;;;;;;;9.05;50.57;99597.03;4976751;28;20037;-58
2022/04/21 00:20:00;;;;;;;1.73;1.45;;;;;;;9.01;51.42;99591.09;5002132;28;20038;-58
2022/04/21 00:25:11;;;;;;;1.80;1.50;;;;;;;8.94;51.79;99607.56;4993835;28;20360;-59
2022/04/21 00:27:41;;;;;;;1.23;1.13;;;;;;;8.87;51.50;99590.47;5006021;28;20387;-59
2022/04/21 00:30:08;;;;;;;1.98;1.20;;;;;;;8.76;51.73;99594.03;5013548;28;20046;-58
2022/04/21 00:32:35;;;;;;;4.40;1.60;;;;;;;8.85;52.00;99592.19;5006337;28;20119;-58
2022/04/21 00:35:01;;;;;;;1.55;1.40;;;;;;;8.74;52.93;99600.97;4974364;28;20027;-58
2022/04/21 00:37:29;;;;;;;2.58;1.35;;;;;;;8.74;52.19;99605.28;5012708;28;20026;-58
2022/04/21 00:39:54;;;;;;;2.45;1.48;;;;;;;8.73;52.48;99595.84;4998485;28;20026;-58
2022/04/21 00:42:20;;;;;;;2.17;1.38;;;;;;;8.59;53.42;99598.63;4993570;28;20026;-58
2022/04/21 00:44:49;;;;;;;1.40;1.30;;;;;;;8.71;52.78;99605.34;4992631;28;20053;-58
2022/04/21 00:47:14;;;;;;;2.67;1.50;;;;;;;8.83;53.22;99599.97;4993451;28;20092;-59
2022/04/21 00:49:40;;;;;;;5.78;1.45;;;;;;;8.73;52.74;99598.41;4981153;28;20030;-59
2022/04/21 00:52:07;;;;;;;3.92;1.27;;;;;;;8.70;53.95;99613.97;4996197;28;20038;-59
2022/04/21 00:54:33;;;;;;;2.67;1.63;;;;;;;8.75;53.38;99606.97;4993701;28;20030;-59
2022/04/21 00:57:04;;;;;;;2.10;1.30;;;;;;;8.74;53.25;99603.56;4996325;28;20030;-59
2022/04/21 00:59:33;;;;;;;2.55;1.48;;;;;;;8.60;54.49;99608.91;4993089;28;20137;-58
2022/04/21 01:04:46;;;;;;;1.50;1.38;;;;;;;8.62;53.42;99601.16;4993395;28;20480;-58
2022/04/21 01:07:11;;;;;;;3.80;1.40;;;;;;;8.86;53.25;99618.00;4975927;28;20032;-58
2022/04/21 01:09:40;;;;;;;2.75;1.50;;;;;;;8.75;53.42;99614.72;4993322;28;20038;-59
2022/04/21 01:12:09;;;;;;;3.67;1.67;;;;;;;8.35;53.62;99555.91;5000885;28;20049;-58
2022/04/21 01:14:37;;;;;;;2.03;1.40;;;;;;;8.54;54.70;99580.63;5006471;28;20026;-58
2022/04/21 01:17:06;;;;;;;3.00;1.80;;;;;;;8.75;53.49;99600.09;4993320;28;20037;-59
2022/04/21 01:19:33;;;;;;;1.65;1.20;;;;;;;8.58;54.67;99607.22;4999336;28;20034;-58
2022/04/21 01:21:58;;;;;;;2.75;1.55;;;;;;;8.51;55.36;99610.78;4994905;28;20030;-59
2022/04/21 01:24:24;;;;;;;1.60;1.40;;;;;;;8.58;55.33;99594.31;4993256;28;20368;-59
2022/04/21 01:26:50;;;;;;;2.75;1.30;;;;;;;8.46;55.21;99593.66;4993056;28;20026;-59
2022/04/21 01:29:17;;;;;;;2.00;1.40;;;;;;;8.32;56.04;99600.69;4975545;28;20035;-59
2022/04/21 01:31:43;;;;;;;2.65;1.52;;;;;;;8.37;54.89;99596.31;4993172;28;20459;-59
2022/04/21 01:34:09;;;;;;;1.85;1.20;;;;;;;8.20;56.18;99614.59;4993058;28;20420;-59
2022/04/21 01:36:35;;;;;;;1.80;1.20;;;;;;;8.38;55.91;99598.03;5004454;28;20101;-59
2022/04/21 01:41:45;;;;;;;1.58;1.20;;;;;;;8.22;55.92;99607.72;5003206;28;20162;-58
2022/04/21 01:44:10;;;;;;;1.77;1.20;;;;;;;8.17;56.35;99598.31;4973521;28;20118;-58
2022/04/21 01:46:36;;;;;;;1.10;1.00;;;;;;;8.31;55.63;99593.84;4992817;28;20496;-59
2022/04/21 01:49:01;;;;;;;4.07;1.40;;;;;;;8.35;55.16;99598.09;4961097;28;20442;-58
2022/04/21 01:51:27;;;;;;;3.22;1.20;;;;;;;8.35;56.18;99592.03;4984682;28;20026;-58
2022/04/21 01:53:53;;;;;;;1.63;1.13;;;;;;;8.08;56.26;99607.00;4992760;28;20030;-61
2022/04/21 01:56:18;;;;;;;4.10;1.50;;;;;;;8.19;56.61;99606.88;4979295;28;20114;-59
2022/04/21 01:58:45;;;;;;;2.05;1.20;;;;;;;8.46;56.01;99598.81;4996629;28;20033;-59
2022/04/21 02:01:10;;;;;;;2.25;1.30;;;;;;;8.27;55.57;99605.06;4993965;28;20394;-58
2022/04/21 02:03:36;;;;;;;1.95;1.40;;;;;;;8.09;56.42;99612.19;5000104;28;20042;-60
2022/04/21 02:06:02;;;;;;;2.45;1.55;;;;;;;8.13;56.64;99602.66;4998809;28;20029;-59
2022/04/21 02:08:28;;;;;;;2.83;1.48;;;;;;;8.16;56.47;99604.34;4979214;28;20035;-60
2022/04/21 02:10:53;;;;;;;4.38;1.35;;;;;;;8.05;56.13;99587.28;4996533;28;20030;-59
2022/04/21 02:13:19;;;;;;;3.90;1.33;;;;;;;8.20;56.81;99593.13;5000907;28;20100;-59
2022/04/21 02:15:45;;;;;;;2.20;1.30;;;;;;;8.23;56.35;99600.81;5003341;28;20022;-59
2022/04/21 02:18:11;;;;;;;7.72;2.00;;;;;;;8.29;56.10;99596.44;4995921;28;20030;-59
2022/04/21 02:20:36;;;;;;;5.57;1.60;;;;;;;8.12;56.48;99596.66;5004709;28;20030;-60
2022/04/21 02:23:02;;;;;;;2.95;1.20;;;;;;;8.02;57.15;99602.78;4996321;28;20024;-60
2022/04/21 02:25:28;;;;;;;2.65;1.30;;;;;;;8.05;56.48;99596.75;4996220;28;20023;-59
2022/04/21 02:27:54;;;;;;;2.67;1.50;;;;;;;8.09;56.44;99594.13;4978668;28;20057;-58
2022/04/21 02:30:20;;;;;;;2.47;1.10;;;;;;;8.13;56.49;99593.19;4996363;28;20087;-58
2022/04/21 02:32:46;;;;;;;6.15;1.10;;;;;;;8.16;56.43;99596.63;5000408;28;20095;-58
2022/04/21 02:35:13;;;;;;;3.22;1.17;;;;;;;8.05;57.22;99587.28;5015685;28;20030;-58
2022/04/21 02:37:48;;;;;;;2.05;1.20;;;;;;;8.09;57.19;99601.88;4996011;28;20476;-58
2022/04/21 02:40:15;;;;;;;2.20;1.23;;;;;;;8.24;56.70;99595.63;4978492;28;20083;-58
2022/04/21 02:42:40;;;;;;;1.50;1.20;;;;;;;8.09;56.73;99596.69;4995674;28;20030;-58
2022/04/21 02:45:11;;;;;;;1.40;1.30;;;;;;;8.04;56.84;99592.47;5002846;28;20471;-59
2022/04/21 02:47:42;;;;;;;2.83;1.55;;;;;;;7.78;57.48;99544.63;5012227;28;20046;-59
2022/04/21 02:50:08;;;;;;;2.42;1.88;;;;;;;8.06;56.47;99578.66;5006838;28;20029;-59
2022/04/21 02:52:38;;;;;;;4.80;1.35;;;;;;;7.94;57.69;99591.72;4996259;28;20037;-59
2022/04/21 02:57:48;;;;;;;1.45;1.10;;;;;;;8.13;56.47;99566.53;4994009;28;20027;-59
2022/04/21 03:00:14;;;;;;;2.10;1.23;;;;;;;8.21;56.99;99577.63;4975967;28;20031;-59
2022/04/21 03:02:40;;;;;;;1.52;0.98;;;;;;;8.12;56.51;99557.97;5010906;28;20112;-59
2022/04/21 03:05:06;;;;;;;2.22;1.30;;;;;;;8.20;56.56;99568.16;5014284;28;20428;-59
2022/04/21 03:07:32;;;;;;;5.53;1.63;;;;;;;8.08;56.89;99564.03;4995341;28;20022;-59
2022/04/21 03:09:57;;;;;;;1.50;1.40;;;;;;;8.27;56.69;99568.94;5009029;28;20386;-59
2022/04/21 03:12:26;;;;;;;1.55;1.40;;;;;;;8.17;57.22;99582.84;5005684;28;20089;-58
2022/04/21 03:14:55;;;;;;;1.65;1.08;;;;;;;8.26;56.67;99588.72;5007102;28;20489;-59
2022/04/21 03:17:20;;;;;;;4.93;1.50;;;;;;;8.17;57.24;99588.00;4995206;28;20034;-58
2022/04/21 03:19:46;;;;;;;3.63;1.38;;;;;;;8.21;56.20;99577.63;5003260;28;20029;-58
2022/04/21 03:25:01;;;;;;;1.42;1.33;;;;;;;8.17;57.85;99583.69;5001139;28;20034;-58
2022/04/21 03:27:29;;;;;;;2.15;1.42;;;;;;;8.13;56.82;99595.75;5004504;28;20102;-59
2022/04/21 03:29:58;;;;;;;3.10;1.73;;;;;;;8.13;57.00;99584.59;5004066;28;20492;-59
2022/04/21 03:32:25;;;;;;;3.28;1.33;;;;;;;7.94;57.57;99592.56;4976301;28;20042;-59
2022/04/21 03:34:51;;;;;;;2.13;1.23;;;;;;;8.05;57.59;99583.84;4994831;28;20487;-59
2022/04/21 03:37:18;;;;;;;1.50;1.30;;;;;;;8.10;57.39;99598.38;5011114;28;20396;-58
2022/04/21 03:39:44;;;;;;;1.80;1.50;;;;;;;8.20;56.98;99587.97;5002098;28;20022;-59
2022/04/21 03:42:19;;;;;;;3.47;1.65;;;;;;;8.08;57.65;99594.13;4985463;28;20033;-58
2022/04/21 03:44:45;;;;;;;1.55;1.45;;;;;;;8.02;57.95;99600.19;4993980;28;20042;-57
2022/04/21 03:47:11;;;;;;;1.40;1.30;;;;;;;8.13;57.29;99608.66;4993492;28;20030;-58
2022/04/21 03:49:36;;;;;;;1.92;1.40;;;;;;;8.11;57.75;99605.25;5001403;28;20026;-59
2022/04/21 03:52:02;;;;;;;2.75;1.45;;;;;;;8.19;57.18;99612.03;4999758;28;20109;-59
2022/04/21 03:54:28;;;;;;;2.20;1.27;;;;;;;8.22;57.88;99606.84;4978169;28;20049;-59
2022/04/21 03:56:54;;;;;;;1.75;1.45;;;;;;;8.34;56.37;99600.66;5003438;28;20022;-59
2022/04/21 03:59:21;;;;;;;1.50;1.40;;;;;;;8.35;56.44;99610.97;4993861;28;20030;-59
2022/04/21 04:01:47;;;;;;;3.33;1.33;;;;;;;8.30;57.41;99592.97;5014041;28;20467;-60
2022/04/21 04:04:13;;;;;;;4.30;1.30;;;;;;;8.57;57.06;99610.72;4977764;28;20113;-60
2022/04/21 04:12:10;;;;;;;7.60;1.30;;;;;;;8.17;57.51;99603.50;4994188;28;20034;-59
2022/04/21 04:14:37;;;;;;;3.85;1.48;;;;;;;8.34;55.97;99606.69;4993781;28;20045;-59
2022/04/21 04:17:03;;;;;;;2.40;1.58;;;;;;;8.54;56.62;99611.59;4994071;28;20034;-58
2022/04/21 04:19:29;;;;;;;3.17;1.55;;;;;;;8.32;57.42;99623.06;4976077;28;20064;-60
2022/04/21 04:21:54;;;;;;;1.60;1.50;;;;;;;8.41;56.28;99612.63;4988052;28;20034;-60
2022/04/21 04:24:20;;;;;;;1.90;1.38;;;;;;;8.32;56.09;99602.41;4993458;28;20388;-60
2022/04/21 04:26:45;;;;;;;7.97;1.85;;;;;;;8.45;56.98;99607.44;4995184;28;20480;-59
2022/04/21 04:29:11;;;;;;;4.57;1.40;;;;;;;8.29;56.48;99609.34;4993608;28;20088;-60
2022/04/21 04:31:39;;;;;;;1.85;1.50;;;;;;;8.36;56.27;99619.56;4993773;28;20073;-60
2022/04/21 04:34:05;;;;;;;3.70;1.70;;;;;;;8.46;56.84;99593.66;4993550;28;20074;-59
2022/04/21 04:36:30;;;;;;;4.70;1.48;;;;;;;8.56;56.52;99604.66;4990389;28;20069;-59
2022/04/21 04:38:56;;;;;;;2.85;1.65;;;;;;;8.53;55.63;99611.63;4994893;28;20034;-57
2022/04/21 04:44:05;;;;;;;4.28;1.83;;;;;;;8.53;56.42;99601.31;5012828;28;20034;-59
2022/04/21 04:46:38;;;;;;;2.25;1.73;;;;;;;8.60;56.40;99593.44;4977494;28;20050;-59
2022/04/21 04:49:11;;;;;;;3.40;1.83;;;;;;;8.74;56.45;99602.72;4987265;28;20038;-59
2022/04/21 04:51:40;;;;;;;3.63;1.90;;;;;;;8.61;56.50;99596.88;4992847;28;20484;-59
2022/04/21 04:54:06;;;;;;;5.78;2.00;;;;;;;8.73;56.26;99595.84;4992971;28;20134;-62
2022/04/21 04:56:33;;;;;;;6.68;1.80;;;;;;;8.64;56.04;99592.50;4992559;28;20019;-58
2022/04/21 04:58:59;;;;;;;4.82;1.95;;;;;;;8.60;55.12;99584.84;4988682;28;20026;-58
2022/04/21 05:01:41;;;;;;;5.07;1.73;;;;;;;8.66;55.67;99583.91;5007739;28;20053;-59
2022/04/21 05:04:11;;;;;;;3.55;1.73;;;;;;;8.37;55.71;99546.44;4994310;28;20515;-58
2022/04/21 05:06:38;;;;;;;4.85;1.70;;;;;;;8.62;55.44;99608.91;4964470;28;20123;-57
2022/04/21 05:09:05;;;;;;;6.22;1.83;;;;;;;8.65;55.31;99608.88;4972771;28;20073;-59
2022/04/21 05:11:31;;;;;;;3.05;1.45;;;;;;;8.59;55.93;99591.75;4972922;28;20026;-58
2022/04/21 05:13:57;;;;;;;4.97;1.88;;;;;;;8.70;55.31;99609.63;4972727;28;20122;-58
2022/04/21 05:16:22;;;;;;;6.75;1.75;;;;;;;8.67;55.37;99594.19;4972975;28;20126;-57
2022/04/21 05:18:49;;;;;;;8.98;2.10;;;;;;;8.89;55.36;99594.72;4972305;28;20117;-57
2022/04/21 05:21:17;;;;;;;5.65;1.67;;;;;;;8.93;54.84;99601.53;4973056;28;20113;-58
2022/04/21 05:23:46;;;;;;;5.25;1.98;;;;;;;8.57;56.89;99541.03;4972688;28;20119;-58
2022/04/21 05:26:12;;;;;;;10.25;2.00;;;;;;;8.83;57.43;99596.56;4972327;28;20038;-58
2022/04/21 05:28:37;;;;;;;3.00;1.70;;;;;;;8.83;56.71;99599.97;4972773;28;20041;-58
2022/04/21 05:31:03;;;;;;;2.88;2.00;;;;;;;8.91;56.30;99605.03;4975293;28;20023;-58
2022/04/21 05:33:30;;;;;;;4.43;1.50;;;;;;;8.77;56.13;99625.91;4976661;28;20025;-57
2022/04/21 05:35:58;;;;;;;5.63;1.95;;;;;;;8.40;56.49;99547.25;4977012;28;20022;-58
2022/04/21 05:38:24;;;;;;;8.02;2.08;;;;;;;8.74;57.15;99623.38;4977374;28;20047;-57
2022/04/21 05:40:52;;;;;;;2.67;1.70;;;;;;;8.73;58.33;99614.75;4957829;29;20024;-57
2022/04/21 05:43:19;;;;;;;2.92;1.30;;;;;;;8.61;58.94;99608.06;4973066;28;20053;-57
2022/04/21 05:45:49;;;;;;;4.10;2.00;;;;;;;8.55;60.10;99615.03;4977251;28;20488;-57
2022/04/21 05:48:15;;;;;;;5.80;1.92;;;;;;;8.49;60.33;99612.53;4977046;28;20034;-59
2022/04/21 05:50:44;;;;;;;2.15;1.70;;;;;;;8.29;61.63;99631.69;4976506;28;20029;-59
2022/04/21 05:53:14;;;;;;;3.20;1.90;;;;;;;8.29;62.76;99642.00;4977001;28;20030;-58
2022/04/21 05:55:40;;;;;;;3.63;1.85;;;;;;;8.24;62.90;99646.38;4977280;28;20039;-57
2022/04/21 05:58:05;;;;;;;3.85;1.88;;;;;;;8.07;65.22;99664.66;4976566;28;20026;-58
2022/04/21 06:00:31;;;;;;;4.43;1.63;;;;;;;8.09;66.74;99660.31;4976946;28;20487;-57
2022/04/21 06:02:57;;;;;;;2.17;1.98;;;;;;;8.07;66.74;99664.66;4977122;28;20336;-58
2022/04/21 06:05:23;;;;;;;4.47;1.88;;;;;;;8.13;67.75;99670.56;4977102;28;20103;-58
2022/04/21 06:07:48;;;;;;;1.50;1.40;;;;;;;7.99;65.83;99679.34;4976921;28;20030;-59
2022/04/21 06:10:14;;;;;;;2.63;2.00;;;;;;;7.98;65.83;99678.50;4976810;28;20093;-58
2022/04/21 06:12:39;;;;;;;2.42;1.73;;;;;;;8.10;67.22;99670.59;4975845;28;20030;-59
2022/04/21 06:15:05;;;;;;;2.33;1.90;;;;;;;8.11;66.64;99672.31;4964432;28;20062;-58
2022/04/21 06:17:31;;;;;;;3.53;2.10;;;;;;;8.07;67.35;99683.53;4975640;28;20180;-58
2022/04/21 06:19:57;;;;;;;2.25;1.88;;;;;;;8.08;67.26;99676.66;4973264;28;20034;-58
2022/04/21 06:22:22;;;;;;;3.13;1.90;;;;;;;8.08;66.99;99682.69;4974954;28;20026;-59
2022/04/21 06:24:48;;;;;;;5.30;2.30;;;;;;;8.08;67.96;99690.41;4975071;28;20035;-57
2022/04/21 06:27:13;;;;;;;3.28;2.13;;;;;;;7.94;67.55;99710.34;4974929;28;20019;-59
2022/04/21 06:29:39;;;;;;;3.60;2.00;;;;;;;7.91;68.27;99690.59;4975017;28;20042;-59
2022/04/21 06:32:05;;;;;;;2.75;2.30;;;;;;;7.94;70.58;99706.03;4976682;28;20038;-58
2022/04/21 06:34:32;;;;;;;4.10;2.00;;;;;;;8.00;69.40;99718.00;4976738;28;20504;-58
2022/04/21 06:37:00;;;;;;;3.15;2.00;;;;;;;7.96;71.31;99718.91;4976440;28;20054;-57
2022/04/21 06:39:25;;;;;;;2.80;2.47;;;;;;;7.90;71.05;99724.13;4976079;28;20468;-57
2022/04/21 06:41:51;;;;;;;3.95;2.25;;;;;;;7.75;73.40;99718.25;4976216;28;20038;-57
2022/04/21 06:49:45;;;;;;;5.65;1.90;;;;;;;7.66;74.58;99720.91;4975111;28;20046;-56
2022/04/21 06:52:11;;;;;;;2.92;2.10;;;;;;;7.63;75.24;99731.25;4975907;28;20027;-57
2022/04/21 06:54:36;;;;;;;3.50;2.25;;;;;;;7.74;76.54;99729.44;4982536;28;20030;-57
2022/04/21 06:57:02;;;;;;;2.55;1.85;;;;;;;7.56;74.38;99734.75;4963886;28;20802;-57
2022/04/21 06:59:28;;;;;;;3.38;2.30;;;;;;;7.56;74.82;99738.16;4956383;28;20046;-57
2022/04/21 07:01:53;;;;;;;3.17;2.03;;;;;;;7.74;73.98;99733.75;4956594;29;20100;-57
2022/04/21 07:04:20;;;;;;;4.38;2.40;;;;;;;7.70;74.47;99737.22;4985721;28;20388;-56
2022/04/21 07:06:46;;;;;;;2.80;1.55;;;;;;;7.64;73.40;99743.28;4995114;28;20106;-59
2022/04/21 07:09:11;;;;;;;2.85;2.20;;;;;;;7.40;75.64;99709.09;4983550;28;20027;-57
2022/04/21 07:11:38;;;;;;;5.65;2.22;;;;;;;7.39;77.60;99758.91;4954619;28;20039;-58
2022/04/21 07:14:04;;;;;;;2.90;1.75;;;;;;;7.37;76.25;99765.81;4970373;28;20085;-57
2022/04/21 07:16:30;;;;;;;2.83;1.95;;;;;;;7.46;76.85;99748.59;4968864;28;20069;-58
2022/04/21 07:18:56;;;;;;;2.85;2.10;;;;;;;7.38;77.93;99757.22;4966367;28;20069;-58
2022/04/21 07:21:21;;;;;;;4.05;2.53;;;;;;;7.51;78.69;99758.00;4969641;28;20763;-58
2022/04/21 07:23:47;;;;;;;5.43;2.53;;;;;;;7.48;77.66;99754.56;4970303;28;20759;-58
2022/04/21 07:26:13;;;;;;;3.83;2.22;;;;;;;7.42;77.87;99758.91;4970558;28;20575;-57
2022/04/21 07:28:38;;;;;;;5.20;2.45;;;;;;;7.52;79.06;99758.84;4970287;28;20086;-58
2022/04/21 07:31:04;;;;;;;4.45;2.42;;;;;;;7.38;78.24;99780.41;4965286;28;20054;-58
2022/04/21 07:33:29;;;;;;;2.40;2.20;;;;;;;7.26;78.83;99772.75;4973778;28;20054;-58
2022/04/21 07:35:55;;;;;;;3.33;2.50;;;;;;;7.28;80.21;99765.84;4954253;28;20030;-58
2022/04/21 07:38:21;;;;;;;4.60;2.40;;;;;;;7.26;79.43;99772.75;4969969;28;20026;-58
2022/04/21 07:40:50;;;;;;;3.78;2.40;;;;;;;7.30;79.38;99789.91;4969835;28;20488;-58
2022/04/21 07:43:16;;;;;;;3.50;2.40;;;;;;;7.40;79.37;99776.09;4970679;28;20451;-58
2022/04/21 07:45:44;;;;;;;4.78;2.40;;;;;;;7.39;79.02;99779.53;4974064;28;20506;-57
2022/04/21 07:48:10;;;;;;;3.65;2.40;;;;;;;7.39;78.83;99794.97;4957148;28;20030;-58
2022/04/21 07:50:36;;;;;;;5.43;2.80;;;;;;;7.45;78.85;99785.50;4974265;28;20033;-57
2022/04/21 07:53:14;;;;;;;2.83;2.53;;;;;;;7.54;78.70;99788.00;4956302;28;20491;-58
2022/04/21 07:55:44;;;;;;;6.20;2.75;;;;;;;7.50;78.17;99800.06;4973480;28;20023;-58
2022/04/21 07:58:10;;;;;;;4.45;2.40;;;;;;;7.56;79.15;99791.44;4974095;28;20089;-60
2022/04/21 08:00:38;;;;;;;5.05;2.72;;;;;;;7.82;78.53;99796.38;4974135;28;20027;-58
2022/04/21 08:03:05;;;;;;;4.50;2.38;;;;;;;7.64;77.10;99802.56;4974488;28;20636;-58
2022/04/21 08:05:31;;;;;;;3.85;2.70;;;;;;;7.61;76.71;99794.84;4974453;28;20066;-58
2022/04/21 08:07:58;;;;;;;4.63;3.08;;;;;;;7.68;78.18;99793.94;4974076;28;20384;-58
2022/04/21 08:10:25;;;;;;;4.93;2.55;;;;;;;7.56;78.45;99809.47;4974183;28;20101;-57
2022/04/21 08:12:52;;;;;;;5.00;2.70;;;;;;;7.67;78.55;99806.84;4973902;28;20101;-57
2022/04/21 08:15:25;;;;;;;2.78;2.50;;;;;;;7.52;78.63;99815.53;4973997;28;20038;-57
2022/04/21 08:17:52;;;;;;;3.05;2.70;;;;;;;7.52;78.89;99816.38;4974163;28;20061;-58
2022/04/21 08:20:18;;;;;;;7.55;3.45;;;;;;;7.65;80.63;99814.56;4973386;28;20472;-57
2022/04/21 08:22:46;;;;;;;5.15;3.05;;;;;;;7.54;81.28;99818.94;4974116;28;20105;-57
2022/04/21 08:33:25;;;;;;;7.18;3.70;;;;;;;7.46;82.03;99826.72;4973716;28;20050;-57
2022/04/21 08:35:51;;;;;;;4.03;2.72;;;;;;;7.26;81.67;99827.69;4973614;28;20022;-57
2022/04/21 08:38:18;;;;;;;5.50;3.60;;;;;;;7.41;81.81;99833.63;4973601;28;20031;-57
2022/04/21 08:40:55;;;;;;;6.75;4.15;;;;;;;7.48;82.80;99829.28;4973206;28;20038;-59
2022/04/21 08:43:22;;;;;;;7.32;3.80;;;;;;;7.62;83.28;99821.47;4973677;28;20031;-59
2022/04/21 08:45:49;;;;;;;4.32;2.97;;;;;;;7.38;82.93;99842.25;4983471;28;20061;-58
2022/04/21 08:48:26;;;;;;;5.80;3.22;;;;;;;7.32;83.12;99823.38;4981884;28;20380;-58
2022/04/21 08:50:52;;;;;;;6.65;3.53;;;;;;;7.41;83.85;99834.50;4969433;28;20360;-58
2022/04/21 08:53:22;;;;;;;4.50;3.22;;;;;;;7.28;83.54;99850.88;4973385;28;20038;-58
2022/04/21 08:55:48;;;;;;;5.03;3.05;;;;;;;7.23;83.41;99844.91;4973568;28;20031;-58
2022/04/21 08:58:14;;;;;;;3.90;2.85;;;;;;;7.18;84.22;99857.81;4973340;28;20077;-57
2022/04/21 09:00:42;;;;;;;3.75;2.83;;;;;;;7.28;84.12;99873.22;4973020;28;20031;-57
2022/04/21 09:03:09;;;;;;;4.55;3.58;;;;;;;7.00;85.41;99794.38;4983236;28;20052;-57
2022/04/21 09:05:35;;;;;;;6.75;3.15;;;;;;;7.22;84.48;99862.06;4992449;28;20034;-57
2022/04/21 09:08:01;;;;;;;5.78;2.70;;;;;;;7.33;84.49;99864.59;4993354;28;20042;-58
2022/04/21 09:10:30;;;;;;;5.38;2.88;;;;;;;7.31;85.10;99863.75;5007180;28;20030;-58
2022/04/21 09:12:57;;;;;;;7.15;3.17;;;;;;;7.60;85.53;99865.31;4992890;28;20109;-58
2022/04/21 09:15:27;;;;;;;5.10;3.08;;;;;;;7.46;85.19;99847.34;4992265;28;20094;-57
2022/04/21 09:18:00;;;;;;;6.75;3.30;;;;;;;7.42;84.60;99892.91;4992750;28;20097;-57
2022/04/21 09:20:35;;;;;;;3.97;2.50;;;;;;;7.02;84.09;99820.94;4992400;28;20023;-58
2022/04/21 09:23:04;;;;;;;4.90;3.28;;;;;;;7.45;84.68;99884.28;4973652;28;20090;-57
2022/04/21 09:25:32;;;;;;;3.83;3.25;;;;;;;7.26;84.48;99855.19;4988762;28;20026;-58
2022/04/21 09:27:59;;;;;;;5.68;3.55;;;;;;;7.53;84.72;99884.25;4993266;28;20030;-58
2022/04/21 09:30:25;;;;;;;3.67;2.85;;;;;;;7.36;84.72;99897.22;4992834;28;20458;-57
2022/04/21 09:32:56;;;;;;;6.80;3.05;;;;;;;7.50;85.68;99882.53;4993054;28;20023;-57
2022/04/21 09:35:33;;;;;;;3.28;2.90;;;;;;;7.34;85.60;99889.50;4992876;28;20034;-57
2022/04/21 09:38:02;;;;;;;3.45;2.80;;;;;;;7.34;85.61;99907.53;5006879;28;20015;-57
2022/04/21 09:40:29;;;;;;;8.43;3.85;;;;;;;7.48;86.36;99894.59;4992437;28;20102;-58
2022/04/21 09:43:03;;;;;;;6.72;3.42;;;;;;;7.52;85.73;99909.13;4992590;28;20097;-57
2022/04/21 09:48:18;;;;;;;4.32;2.85;;;;;;;7.52;85.84;99898.84;4998559;28;20117;-57
2022/04/21 09:50:49;;;;;;;4.22;2.90;;;;;;;7.52;84.87;99929.75;4997266;28;20026;-57
2022/04/21 09:53:16;;;;;;;4.30;2.70;;;;;;;7.33;85.56;99917.84;4992828;28;20077;-58
2022/04/21 09:55:44;;;;;;;5.47;3.05;;;;;;;7.24;85.67;99939.34;4992223;28;20101;-57
2022/04/21 09:58:10;;;;;;;5.72;2.67;;;;;;;7.18;85.62;99924.78;4992192;28;20045;-57
2022/04/21 10:00:38;;;;;;;5.50;2.85;;;;;;;7.09;85.63;99937.66;4991844;28;20474;-57
2022/04/21 10:03:05;;;;;;;3.15;2.72;;;;;;;7.16;86.41;99926.47;4983299;28;20086;-58
2022/04/21 10:05:32;;;;;;;4.95;3.20;;;;;;;7.30;86.20;99944.47;4955800;28;20117;-57
2022/04/21 10:08:03;;;;;;;5.07;2.88;;;;;;;7.12;86.40;99947.13;4955070;28;20102;-58
2022/04/21 10:10:30;;;;;;;5.15;3.00;;;;;;;7.26;87.73;99937.63;4972546;28;20033;-57
2022/04/21 10:12:56;;;;;;;4.07;2.55;;;;;;;7.27;87.14;99944.50;4972198;28;20041;-58
2022/04/21 10:15:24;;;;;;;3.78;2.70;;;;;;;7.09;86.79;99937.66;4972751;28;20039;-57
2022/04/21 10:17:49;;;;;;;3.05;2.63;;;;;;;7.14;87.00;99945.38;4976540;28;20049;-59
2022/04/21 10:20:15;;;;;;;6.00;2.67;;;;;;;7.17;87.41;99960.81;4976371;28;20468;-58
2022/04/21 10:22:41;;;;;;;3.65;2.95;;;;;;;7.25;87.67;99959.06;4976629;28;20046;-58
2022/04/21 10:25:07;;;;;;;3.60;2.97;;;;;;;7.31;88.27;99959.06;4988166;28;20108;-58
2022/04/21 10:27:43;;;;;;;4.45;3.05;;;;;;;7.16;88.00;99965.13;4989320;28;20027;-59
2022/04/21 10:30:16;;;;;;;3.85;3.40;;;;;;;7.41;88.69;99965.91;4976651;28;20129;-59
2022/04/21 10:32:45;;;;;;;5.80;3.55;;;;;;;7.03;88.93;99915.38;4976876;28;20121;-58
2022/04/21 10:35:23;;;;;;;5.65;3.20;;;;;;;7.26;88.52;99976.25;4996125;28;20037;-58
2022/04/21 10:38:19;;;;;;;4.60;3.42;;;;;;;7.32;88.75;99971.06;4978553;28;20031;-58
2022/04/21 10:40:56;;;;;;;6.22;3.10;;;;;;;7.20;87.14;99979.69;4976547;28;20526;-59
2022/04/21 10:43:22;;;;;;;3.03;2.35;;;;;;;7.12;84.65;99973.72;4976415;28;20066;-58
2022/04/21 10:46:05;;;;;;;4.38;2.83;;;;;;;7.07;85.52;99986.59;4976282;28;20038;-58
2022/04/21 10:48:41;;;;;;;3.92;2.40;;;;;;;6.70;85.97;99906.03;4976410;28;20387;-58
2022/04/21 10:51:07;;;;;;;3.83;2.65;;;;;;;7.01;85.44;99989.22;4976027;28;20030;-59
2022/04/21 10:57:12;;;;;;;5.05;2.88;;;;;;;7.25;86.87;99982.25;4956986;28;20047;-57
2022/04/21 10:59:47;;;;;;;4.55;3.33;;;;;;;7.36;86.72;99989.97;4974207;28;20172;-58
2022/04/21 11:02:14;;;;;;;3.50;2.83;;;;;;;7.30;86.53;99997.72;4956779;28;20415;-58
2022/04/21 11:04:39;;;;;;;3.35;3.03;;;;;;;7.22;86.63;100006.31;4943095;28;20046;-57
2022/04/21 11:07:10;;;;;;;4.25;3.00;;;;;;;7.22;86.89;99996.00;4972890;28;20027;-57
2022/04/21 11:09:39;;;;;;;6.10;3.28;;;;;;;7.50;87.80;100001.06;4963570;28;20027;-58
2022/04/21 11:12:07;;;;;;;5.03;3.28;;;;;;;7.64;87.28;100006.19;4975724;28;20041;-58
2022/04/21 11:14:34;;;;;;;4.63;3.03;;;;;;;7.39;87.94;100016.56;4975551;28;20456;-59
2022/04/21 11:17:01;;;;;;;4.57;3.50;;;;;;;7.32;88.16;100007.13;4959189;28;20038;-58
2022/04/21 11:19:32;;;;;;;4.15;3.30;;;;;;;7.31;87.86;100008.03;4975484;28;20023;-59
2022/04/21 11:22:09;;;;;;;6.43;3.60;;;;;;;7.22;88.70;99998.56;4975466;28;20033;-58
2022/04/21 11:25:00;;;;;;;4.10;3.33;;;;;;;7.38;88.36;100019.16;4975776;28;20110;-59
2022/04/21 11:27:26;;;;;;;3.97;3.50;;;;;;;7.53;88.85;100013.94;4974909;28;20030;-59
2022/04/21 11:29:57;;;;;;;4.00;3.50;;;;;;;7.71;89.56;100025.91;4974964;28;20444;-58
2022/04/21 11:32:23;;;;;;;3.63;3.28;;;;;;;7.65;88.66;100022.50;4975787;28;20034;-59
2022/04/21 11:35:00;;;;;;;6.00;3.53;;;;;;;7.24;87.93;99965.97;4954958;29;20023;-57
2022/04/21 11:37:45;;;;;;;4.38;3.38;;;;;;;7.48;86.79;100027.72;4983437;28;20050;-58
2022/04/21 11:40:37;;;;;;;4.93;3.50;;;;;;;7.51;87.74;100030.28;4983063;28;20034;-58
2022/04/21 11:43:11;;;;;;;5.30;3.38;;;;;;;7.58;87.11;100032.84;4975149;28;20023;-57
2022/04/21 11:45:40;;;;;;;6.22;3.40;;;;;;;7.38;87.40;100030.31;4975288;28;20039;-56
2022/04/21 11:48:12;;;;;;;7.18;3.63;;;;;;;7.26;86.91;99974.53;4975249;28;20101;-58
2022/04/21 11:50:42;;;;;;;4.13;3.25;;;;;;;7.24;87.60;99996.88;4975045;28;20433;-59
2022/04/21 11:53:15;;;;;;;4.95;4.03;;;;;;;7.21;87.08;99978.84;4989975;28;20034;-58
2022/04/21 11:55:41;;;;;;;4.85;3.10;;;;;;;7.56;86.29;100047.44;4974799;28;20089;-58
2022/04/21 11:58:06;;;;;;;3.47;3.17;;;;;;;7.42;86.99;100042.34;4974507;28;20476;-58
2022/04/21 12:08:47;;;;;;;6.13;4.00;;;;;;;7.56;86.73;100006.19;4974915;28;20045;-57
2022/04/21 12:11:17;;;;;;;3.95;3.40;;;;;;;7.50;85.82;100016.53;4955406;29;20128;-58
2022/04/21 12:13:47;;;;;;;3.80;3.40;;;;;;;7.35;85.40;99980.50;4970433;28;20027;-57
2022/04/21 12:16:37;;;;;;;3.83;3.40;;;;;;;7.55;85.05;100037.13;4974578;28;20034;-58
2022/04/21 12:19:35;;;;;;;4.40;2.85;;;;;;;7.35;85.60;100038.03;4973983;28;20110;-58
2022/04/21 12:22:07;;;;;;;3.92;2.97;;;;;;;7.14;85.58;99978.84;4967715;28;20480;-59
2022/04/21 12:24:39;;;;;;;4.90;3.25;;;;;;;7.54;85.55;100036.28;4974563;28;20392;-59
2022/04/21 12:27:16;;;;;;;4.22;2.80;;;;;;;7.41;85.33;100039.75;4974740;28;20042;-59
2022/04/21 12:29:52;;;;;;;4.45;2.78;;;;;;;7.47;85.41;100044.03;4974396;28;20027;-58
2022/04/21 12:32:21;;;;;;;4.68;3.28;;;;;;;7.65;85.43;100062.00;4993607;28;20030;-58
2022/04/21 12:34:47;;;;;;;5.00;2.92;;;;;;;7.51;84.28;100056.91;4993847;28;20460;-58